Time;durP1;ratioP1;P1;durP2;ratioP2;P2;SDS_P1;SDS_P2;PMS_P1;PMS_P2;Temp;Humidity;BMP_temperature;BMP_pressure;BME280_temperature;BME280_humidity;BME280_pressure;Samples;Min_cycle;Max_cycle;Signal;HPM_P1;HPM_P2
2023/03/11 00:00:12;;;;;;;9.32;1.73;;;0.30;99.90;;;;;;5064315;28;20392;-68
2023/03/11 00:02:38;;;;;;;11.18;2.20;;;0.30;99.90;;;;;;5076174;28;20388;-72
2023/03/11 00:05:05;;;;;;;11.65;2.00;;;0.30;99.90;;;;;;5070146;28;20083;-70
2023/03/11 00:07:30;;;;;;;8.30;1.90;;;0.30;99.90;;;;;;5062565;28;20044;-70
2023/03/11 00:09:56;;;;;;;12.88;2.25;;;0.40;99.90;;;;;;5047634;28;20040;-71
2023/03/11 00:12:21;;;;;;;10.70;2.20;;;0.30;99.90;;;;;;5046806;28;20436;-72
2023/03/11 00:14:47;;;;;;;12.20;1.90;;;0.40;99.90;;;;;;5064562;28;20044;-72
2023/03/11 00:17:12;;;;;;;9.65;1.95;;;0.40;99.90;;;;;;5063269;28;20047;-66
2023/03/11 00:19:38;;;;;;;10.52;2.65;;;0.40;99.90;;;;;;5064886;28;20036;-69
2023/03/11 00:22:04;;;;;;;11.70;2.45;;;0.50;99.90;;;;;;5079274;28;20045;-67
2023/03/11 00:24:29;;;;;;;8.95;1.77;;;0.50;99.90;;;;;;5081349;28;20040;-69
2023/03/11 00:26:55;;;;;;;11.27;2.80;;;0.50;99.90;;;;;;5082000;28;20051;-72
2023/03/11 00:29:20;;;;;;;6.95;1.70;;;0.50;99.90;;;;;;5080155;28;20043;-72
2023/03/11 00:31:46;;;;;;;7.07;1.42;;;0.50;99.90;;;;;;5060821;28;20540;-65
2023/03/11 00:34:11;;;;;;;10.27;2.00;;;0.50;99.90;;;;;;5055310;28;20756;-65
2023/03/11 00:36:37;;;;;;;8.32;1.92;;;0.60;99.90;;;;;;5077236;28;20055;-65
2023/03/11 00:39:06;;;;;;;9.15;1.35;;;0.60;99.90;;;;;;5079884;28;20081;-65
2023/03/11 00:41:33;;;;;;;12.82;1.60;;;0.70;99.90;;;;;;5076989;28;20031;-65
2023/03/11 00:43:59;;;;;;;5.93;1.77;;;0.70;99.90;;;;;;5061359;28;20032;-66
2023/03/11 00:46:26;;;;;;;9.07;2.28;;;0.70;99.90;;;;;;5081562;28;20406;-64
2023/03/11 00:48:51;;;;;;;8.40;1.70;;;0.70;99.90;;;;;;5067843;28;20068;-66
2023/03/11 00:51:17;;;;;;;8.23;1.65;;;0.70;99.90;;;;;;5064346;28;20889;-65
2023/03/11 00:53:43;;;;;;;9.60;1.45;;;0.70;99.90;;;;;;5069643;28;20052;-64
2023/03/11 00:56:10;;;;;;;14.32;1.70;;;0.70;99.90;;;;;;5070949;28;20047;-63
2023/03/11 00:58:36;;;;;;;8.60;1.90;;;0.70;99.90;;;;;;5069166;28;20055;-64
2023/03/11 01:01:13;;;;;;;10.73;1.65;;;0.70;99.90;;;;;;5056187;28;20561;-63
2023/03/11 01:03:39;;;;;;;8.60;1.60;;;0.70;99.90;;;;;;5071708;28;20044;-65
2023/03/11 01:06:05;;;;;;;16.13;2.17;;;0.70;99.90;;;;;;5072233;28;20039;-64
2023/03/11 01:08:31;;;;;;;8.93;1.45;;;0.70;99.90;;;;;;5068530;28;20047;-64
2023/03/11 01:10:58;;;;;;;12.82;1.48;;;0.70;99.90;;;;;;5071952;28;20051;-65
2023/03/11 01:13:24;;;;;;;7.70;1.50;;;0.70;99.90;;;;;;5072205;28;20077;-64
2023/03/11 01:15:51;;;;;;;4.38;1.38;;;0.70;99.90;;;;;;5054138;28;20082;-63
2023/03/11 01:18:17;;;;;;;7.45;1.38;;;0.70;99.90;;;;;;5068668;28;20085;-64
2023/03/11 01:20:42;;;;;;;7.32;1.20;;;0.70;99.90;;;;;;5072381;28;20450;-64
2023/03/11 01:23:09;;;;;;;8.35;1.40;;;0.80;99.90;;;;;;5070483;28;20044;-63
2023/03/11 01:25:35;;;;;;;5.32;1.40;;;0.70;99.90;;;;;;5072079;28;20044;-63
2023/03/11 01:28:01;;;;;;;7.38;1.38;;;0.70;99.90;;;;;;5066576;28;20036;-65
2023/03/11 01:30:28;;;;;;;7.65;1.30;;;0.70;99.90;;;;;;5070277;28;20384;-63
2023/03/11 01:32:55;;;;;;;5.95;1.52;;;0.70;99.90;;;;;;5070897;28;20657;-62
2023/03/11 01:35:23;;;;;;;6.93;1.23;;;0.70;99.90;;;;;;5073763;28;20071;-63
2023/03/11 01:37:48;;;;;;;5.45;1.38;;;0.70;99.90;;;;;;5065667;28;20043;-63
2023/03/11 01:40:30;;;;;;;11.10;1.50;;;0.70;99.90;;;;;;5072259;28;20040;-62
2023/03/11 01:42:56;;;;;;;6.78;1.25;;;0.70;99.90;;;;;;5052733;28;20446;-63
2023/03/11 01:45:24;;;;;;;2.72;0.98;;;0.70;99.90;;;;;;5070539;28;20368;-65
2023/03/11 01:47:50;;;;;;;7.53;1.10;;;0.70;99.90;;;;;;5066525;28;20054;-65
2023/03/11 01:50:16;;;;;;;8.68;1.33;;;0.70;99.90;;;;;;5069344;28;20121;-66
2023/03/11 01:52:43;;;;;;;3.97;1.30;;;0.70;99.90;;;;;;5068802;28;20047;-64
2023/03/11 01:55:10;;;;;;;9.55;1.38;;;0.70;99.90;;;;;;5071273;28;20131;-67
2023/03/11 01:57:39;;;;;;;7.65;1.75;;;0.70;99.90;;;;;;5066583;28;20078;-66
2023/03/11 02:00:08;;;;;;;6.68;1.33;;;0.60;99.90;;;;;;5072633;28;20052;-62
2023/03/11 02:02:39;;;;;;;6.80;1.33;;;0.60;99.90;;;;;;5070973;28;20507;-63
2023/03/11 02:05:05;;;;;;;6.97;1.40;;;0.60;99.90;;;;;;5070244;28;20083;-63
2023/03/11 02:07:31;;;;;;;8.15;1.25;;;0.60;99.90;;;;;;5064918;28;20058;-63
2023/03/11 02:09:56;;;;;;;6.35;1.52;;;0.60;99.90;;;;;;5069288;28;20048;-63
2023/03/11 02:12:22;;;;;;;5.88;1.20;;;0.60;99.90;;;;;;5070267;28;20474;-62
2023/03/11 02:14:50;;;;;;;4.93;1.08;;;0.60;99.90;;;;;;5069264;28;20042;-65
2023/03/11 02:17:16;;;;;;;9.63;1.48;;;0.60;99.90;;;;;;5062731;28;20162;-63
2023/03/11 02:20:16;;;;;;;7.72;1.25;;;0.50;99.90;;;;;;5071545;28;20101;-62
2023/03/11 02:22:43;;;;;;;3.83;1.42;;;0.50;99.90;;;;;;5037006;28;20051;-65
2023/03/11 02:25:17;;;;;;;8.75;1.27;;;0.50;99.90;;;;;;5077054;28;20086;-67
2023/03/11 02:27:46;;;;;;;9.05;1.17;;;0.40;99.90;;;;;;5079340;28;20480;-65
2023/03/11 02:30:13;;;;;;;7.68;1.30;;;0.40;99.90;;;;;;5077808;28;20044;-63
2023/03/11 02:32:41;;;;;;;7.07;1.42;;;0.40;99.90;;;;;;5077611;28;20075;-66
2023/03/11 02:35:07;;;;;;;4.28;1.17;;;0.40;99.90;;;;;;5081247;28;20051;-65
2023/03/11 02:37:33;;;;;;;8.93;1.30;;;0.40;99.90;;;;;;5083428;28;20035;-64
2023/03/11 02:40:20;;;;;;;10.50;1.50;;;0.40;99.90;;;;;;5067290;28;20041;-63
2023/03/11 02:42:46;;;;;;;6.20;1.23;;;0.40;99.90;;;;;;5066930;28;20040;-66
2023/03/11 02:45:15;;;;;;;4.97;1.17;;;0.40;99.90;;;;;;5052076;28;20066;-66
2023/03/11 02:47:41;;;;;;;5.95;1.20;;;0.40;99.90;;;;;;5083703;28;20376;-66
2023/03/11 02:50:11;;;;;;;8.48;1.10;;;0.40;99.90;;;;;;5071308;28;20062;-65
2023/03/11 02:52:36;;;;;;;4.57;1.10;;;0.40;99.90;;;;;;5063591;28;20055;-66
2023/03/11 02:55:02;;;;;;;3.72;1.00;;;0.40;99.90;;;;;;5066777;28;20731;-65
2023/03/11 02:57:28;;;;;;;3.58;1.15;;;0.40;99.90;;;;;;5064718;28;20753;-65
2023/03/11 02:59:53;;;;;;;10.60;1.75;;;0.40;99.90;;;;;;5065359;28;20048;-65
2023/03/11 03:02:19;;;;;;;5.63;1.55;;;0.30;99.90;;;;;;5072918;28;20048;-64
2023/03/11 03:04:44;;;;;;;10.35;1.20;;;0.30;99.90;;;;;;5073850;28;20044;-66
2023/03/11 03:07:10;;;;;;;9.48;1.30;;;0.20;99.90;;;;;;5062888;28;20101;-65
2023/03/11 03:09:36;;;;;;;9.07;1.50;;;0.20;99.90;;;;;;5064864;28;20676;-65
2023/03/11 03:12:03;;;;;;;6.03;1.20;;;0.10;99.90;;;;;;5064942;28;20476;-66
2023/03/11 03:14:30;;;;;;;7.15;1.30;;;0.10;99.90;;;;;;5066071;28;20033;-65
2023/03/11 03:16:56;;;;;;;4.72;1.15;;;0.00;99.90;;;;;;5064100;28;20045;-65
2023/03/11 03:19:21;;;;;;;7.43;1.65;;;0.00;99.90;;;;;;5064784;28;20636;-66
2023/03/11 03:21:48;;;;;;;6.93;1.48;;;0.00;99.90;;;;;;5063934;28;20068;-64
2023/03/11 03:24:14;;;;;;;9.95;1.20;;;-0.10;99.90;;;;;;5063886;28;20040;-64
2023/03/11 03:26:39;;;;;;;6.60;1.10;;;-0.10;99.90;;;;;;5064444;28;20620;-64
2023/03/11 03:29:05;;;;;;;10.85;1.45;;;-0.20;99.90;;;;;;5064649;28;20052;-64
2023/03/11 03:31:30;;;;;;;8.00;1.58;;;-0.20;99.90;;;;;;5069301;28;20085;-62
2023/03/11 03:33:56;;;;;;;3.60;1.10;;;-0.20;99.90;;;;;;5065489;28;20059;-64
2023/03/11 03:36:22;;;;;;;13.50;1.40;;;-0.30;99.90;;;;;;5062294;28;20035;-63
2023/03/11 03:38:51;;;;;;;4.60;1.30;;;-0.30;99.90;;;;;;5082356;28;20338;-63
2023/03/11 03:41:17;;;;;;;8.70;1.63;;;-0.30;99.90;;;;;;5085046;28;20044;-62
2023/03/11 03:43:42;;;;;;;3.50;1.00;;;-0.40;99.90;;;;;;5082773;28;20043;-64
2023/03/11 03:46:08;;;;;;;7.82;1.30;;;-0.40;99.90;;;;;;5083897;28;20036;-63
2023/03/11 03:48:34;;;;;;;6.78;1.20;;;-0.50;99.90;;;;;;5063711;28;20040;-62
2023/03/11 03:51:05;;;;;;;8.98;2.08;;;-0.50;99.90;;;;;;5065790;28;20041;-62
2023/03/11 03:53:32;;;;;;;7.55;1.45;;;-0.50;99.90;;;;;;5064134;28;20233;-63
2023/03/11 03:56:05;;;;;;;5.40;1.25;;;-0.60;99.90;;;;;;5065841;28;20392;-62
2023/03/11 03:58:30;;;;;;;9.07;1.52;;;-0.60;99.90;;;;;;5065096;28;20048;-62
2023/03/11 04:00:56;;;;;;;6.47;1.38;;;-0.60;99.90;;;;;;5065854;28;20051;-62
2023/03/11 04:03:23;;;;;;;7.45;1.10;;;-0.60;99.90;;;;;;5064093;28;20036;-62
2023/03/11 04:05:48;;;;;;;5.03;1.25;;;-0.70;99.90;;;;;;5084684;28;20044;-62
2023/03/11 04:08:14;;;;;;;6.80;1.38;;;-0.80;99.90;;;;;;5083658;28;20518;-61
2023/03/11 04:10:39;;;;;;;12.02;1.70;;;-0.90;99.90;;;;;;5085591;28;20572;-61
2023/03/11 04:13:05;;;;;;;8.90;1.50;;;-1.00;99.90;;;;;;5073401;28;20039;-62
2023/03/11 04:15:30;;;;;;;9.25;1.88;;;-1.10;99.90;;;;;;5065514;28;20523;-61
2023/03/11 04:17:56;;;;;;;12.20;1.73;;;-1.20;99.90;;;;;;5063617;28;20733;-61
2023/03/11 04:20:21;;;;;;;9.10;1.50;;;-1.30;99.90;;;;;;5065131;28;20090;-61
2023/03/11 04:22:47;;;;;;;9.65;1.85;;;-1.30;99.90;;;;;;5063584;28;20064;-60
2023/03/11 04:25:13;;;;;;;5.78;1.98;;;-1.30;99.90;;;;;;5063526;28;20623;-60
2023/03/11 04:27:41;;;;;;;6.43;1.70;;;-1.30;99.90;;;;;;5080426;28;20778;-61
2023/03/11 04:30:08;;;;;;;7.05;1.52;;;-1.40;99.90;;;;;;5065162;28;20442;-61
2023/03/11 04:32:33;;;;;;;8.80;1.38;;;-1.40;99.90;;;;;;5068182;28;20576;-61
2023/03/11 04:34:59;;;;;;;7.55;1.35;;;-1.40;99.90;;;;;;5074623;28;20055;-60
2023/03/11 04:37:28;;;;;;;7.88;1.35;;;-1.40;99.90;;;;;;5083326;28;20036;-60
2023/03/11 04:39:53;;;;;;;9.32;1.52;;;-1.40;99.90;;;;;;5085442;28;20036;-61
2023/03/11 04:42:19;;;;;;;3.63;1.33;;;-1.50;99.90;;;;;;5076015;28;20039;-61
2023/03/11 04:44:44;;;;;;;9.32;1.60;;;-1.50;99.90;;;;;;5086765;28;20036;-61
2023/03/11 04:47:10;;;;;;;6.80;1.77;;;-1.60;99.90;;;;;;5075827;28;20055;-61
2023/03/11 04:49:36;;;;;;;7.93;1.40;;;-1.60;99.90;;;;;;5065437;28;20047;-61
2023/03/11 04:52:01;;;;;;;8.43;1.50;;;-1.60;99.90;;;;;;5062903;28;20052;-61
2023/03/11 04:54:27;;;;;;;4.78;1.50;;;-1.70;99.90;;;;;;5063183;28;20052;-61
2023/03/11 04:56:52;;;;;;;8.20;1.58;;;-1.70;99.90;;;;;;5063979;28;20040;-61
2023/03/11 04:59:18;;;;;;;7.30;2.00;;;-1.70;99.90;;;;;;5064044;28;20206;-62
2023/03/11 05:01:44;;;;;;;11.07;2.00;;;-1.80;99.90;;;;;;5066483;28;20479;-62
2023/03/11 05:04:10;;;;;;;6.97;1.77;;;-1.80;99.90;;;;;;5079093;28;20146;-61
2023/03/11 05:06:36;;;;;;;6.43;1.70;;;-1.80;99.90;;;;;;5064202;28;20075;-61
2023/03/11 05:09:03;;;;;;;12.32;1.73;;;-1.80;99.90;;;;;;5062911;28;20090;-62
2023/03/11 05:11:29;;;;;;;7.57;1.90;;;-1.80;99.90;;;;;;5062930;28;20056;-61
2023/03/11 05:13:55;;;;;;;6.63;1.60;;;-1.80;99.90;;;;;;5064243;28;20492;-61
2023/03/11 05:16:20;;;;;;;4.22;1.60;;;-1.80;99.90;;;;;;5065688;28;20083;-60
2023/03/11 05:18:46;;;;;;;4.95;1.52;;;-1.90;99.90;;;;;;5063403;28;20526;-61
2023/03/11 05:21:11;;;;;;;11.88;2.00;;;-1.90;99.90;;;;;;5064562;28;20363;-61
2023/03/11 05:23:37;;;;;;;6.28;2.08;;;-2.00;99.90;;;;;;5062498;28;20497;-61
2023/03/11 05:26:03;;;;;;;12.50;2.38;;;-2.00;99.90;;;;;;5064059;28;20040;-61
2023/03/11 05:28:28;;;;;;;6.20;1.73;;;-2.10;99.90;;;;;;5072791;28;20130;-62
2023/03/11 05:30:54;;;;;;;9.48;1.70;;;-2.10;99.90;;;;;;5083542;28;20051;-62
2023/03/11 05:33:19;;;;;;;8.20;2.00;;;-2.20;99.90;;;;;;5071247;28;20040;-62
2023/03/11 05:35:45;;;;;;;7.40;1.48;;;-2.20;99.90;;;;;;5063899;28;20416;-60
2023/03/11 05:38:11;;;;;;;3.85;1.23;;;-2.20;99.90;;;;;;5061679;28;20040;-60
2023/03/11 05:40:36;;;;;;;8.07;1.77;;;-2.20;99.90;;;;;;5064150;28;20056;-61
2023/03/11 05:43:02;;;;;;;6.82;1.52;;;-2.20;99.90;;;;;;5063763;28;20633;-60
2023/03/11 05:45:28;;;;;;;11.40;2.20;;;-2.30;99.90;;;;;;5069735;28;20319;-61
2023/03/11 05:47:53;;;;;;;9.30;1.52;;;-2.30;99.90;;;;;;5070799;28;20135;-61
2023/03/11 05:50:19;;;;;;;8.38;1.92;;;-2.20;99.90;;;;;;5066018;28;20037;-60
2023/03/11 05:52:44;;;;;;;12.07;2.55;;;-2.30;99.90;;;;;;5061773;28;20048;-61
2023/03/11 05:55:11;;;;;;;5.35;1.77;;;-2.30;99.90;;;;;;5074844;28;20143;-63
2023/03/11 05:57:37;;;;;;;8.65;1.90;;;-2.30;99.90;;;;;;5077618;28;20060;-61
2023/03/11 06:00:06;;;;;;;11.20;2.22;;;-2.30;99.90;;;;;;5063263;28;20037;-61
2023/03/11 06:02:31;;;;;;;8.65;1.70;;;-2.30;99.90;;;;;;5071475;28;20409;-61
2023/03/11 06:04:57;;;;;;;10.98;2.83;;;-2.30;99.90;;;;;;5071556;28;20039;-62
2023/03/11 06:07:23;;;;;;;8.25;1.80;;;-2.30;99.90;;;;;;5059526;28;20672;-60
2023/03/11 06:09:49;;;;;;;6.55;1.50;;;-2.30;99.90;;;;;;5061240;28;20050;-61
2023/03/11 06:12:15;;;;;;;7.97;1.45;;;-2.30;99.90;;;;;;5063492;28;20041;-61
2023/03/11 06:14:40;;;;;;;10.25;1.77;;;-2.30;99.90;;;;;;5063500;28;20058;-62
2023/03/11 06:17:06;;;;;;;10.48;1.75;;;-2.30;99.90;;;;;;5061287;28;20044;-60
2023/03/11 06:19:31;;;;;;;8.48;1.52;;;-2.30;99.90;;;;;;5061958;28;20044;-61
2023/03/11 06:21:57;;;;;;;9.00;1.63;;;-2.20;99.90;;;;;;5061932;28;20040;-62
2023/03/11 06:24:23;;;;;;;9.90;1.85;;;-2.20;99.90;;;;;;5063505;28;20044;-62
2023/03/11 06:26:52;;;;;;;7.40;1.77;;;-2.20;99.90;;;;;;5078271;28;20044;-61
2023/03/11 06:29:18;;;;;;;9.90;2.10;;;-2.20;99.90;;;;;;5063588;28;20044;-62
2023/03/11 06:31:44;;;;;;;11.02;1.98;;;-2.20;99.90;;;;;;5074373;28;21830;-62
2023/03/11 06:34:10;;;;;;;8.80;1.80;;;-2.20;99.90;;;;;;5063372;28;20044;-61
2023/03/11 06:36:36;;;;;;;4.55;1.63;;;-2.20;99.90;;;;;;5076656;28;20082;-61
2023/03/11 06:39:03;;;;;;;7.05;1.65;;;-2.20;99.90;;;;;;5080344;28;20724;-61
2023/03/11 06:41:28;;;;;;;7.22;1.67;;;-2.20;99.90;;;;;;5077156;28;20492;-62
2023/03/11 06:43:58;;;;;;;8.50;1.90;;;-2.10;99.90;;;;;;5063471;28;20074;-62
2023/03/11 06:46:24;;;;;;;6.13;1.38;;;-2.10;99.90;;;;;;5061765;28;20438;-61
2023/03/11 06:48:52;;;;;;;7.55;1.80;;;-2.10;99.90;;;;;;5063337;28;20047;-61
2023/03/11 06:51:18;;;;;;;6.53;1.70;;;-2.00;99.90;;;;;;5080102;28;20044;-63
2023/03/11 06:53:48;;;;;;;5.70;1.55;;;-2.00;99.90;;;;;;5081244;28;20052;-61
2023/03/11 06:56:13;;;;;;;11.95;1.92;;;-2.00;99.90;;;;;;5078916;28;20052;-63
2023/03/11 06:58:40;;;;;;;7.10;1.70;;;-1.90;99.90;;;;;;5071577;28;20499;-62
2023/03/11 07:01:18;;;;;;;6.78;1.73;;;-1.90;99.90;;;;;;5083076;28;20380;-63
2023/03/11 07:03:46;;;;;;;10.18;2.13;;;-1.80;99.90;;;;;;5063183;28;20055;-63
2023/03/11 07:06:23;;;;;;;8.35;1.73;;;-1.80;99.90;;;;;;5062647;28;20798;-61
2023/03/11 07:08:50;;;;;;;9.95;2.13;;;-1.80;99.90;;;;;;5061364;28;20108;-62
2023/03/11 07:11:19;;;;;;;8.20;1.70;;;-1.70;99.90;;;;;;5062391;28;20044;-62
2023/03/11 07:13:45;;;;;;;8.15;1.67;;;-1.70;99.90;;;;;;5061666;28;20074;-62
2023/03/11 07:16:17;;;;;;;7.00;1.80;;;-1.60;99.90;;;;;;5062603;28;20043;-61
2023/03/11 07:18:44;;;;;;;10.55;1.95;;;-1.50;99.90;;;;;;5062996;28;20041;-65
2023/03/11 07:21:15;;;;;;;6.93;1.90;;;-1.40;99.90;;;;;;5082219;28;20039;-66
2023/03/11 07:23:42;;;;;;;12.88;2.08;;;-1.30;99.90;;;;;;5085173;28;20040;-66
2023/03/11 07:26:13;;;;;;;11.73;1.92;;;-1.20;99.90;;;;;;5086902;28;20493;-67
2023/03/11 07:28:39;;;;;;;10.55;2.30;;;-1.10;99.90;;;;;;5073803;28;20044;-69
2023/03/11 07:31:10;;;;;;;9.95;2.10;;;-1.00;99.90;;;;;;5065401;28;20047;-71
2023/03/11 07:33:37;;;;;;;8.18;2.00;;;-0.80;99.90;;;;;;5065194;28;20803;-66
2023/03/11 07:36:14;;;;;;;11.70;2.47;;;-0.70;99.90;;;;;;5078724;28;20040;-65
2023/03/11 07:38:40;;;;;;;6.80;1.58;;;-0.60;99.90;;;;;;5083855;28;20040;-69
2023/03/11 07:41:06;;;;;;;7.38;2.05;;;-0.50;99.90;;;;;;5069000;28;20253;-65
2023/03/11 07:43:32;;;;;;;6.25;1.60;;;-0.40;99.90;;;;;;5066285;28;20063;-68
2023/03/11 07:46:03;;;;;;;9.77;1.85;;;-0.30;99.90;;;;;;5066596;28;20044;-64
2023/03/11 07:48:28;;;;;;;13.13;2.08;;;-0.20;99.90;;;;;;5065234;28;20098;-66
2023/03/11 07:51:02;;;;;;;6.28;1.60;;;-0.10;99.90;;;;;;5065659;28;20044;-65
2023/03/11 07:53:28;;;;;;;6.85;1.85;;;-0.10;99.90;;;;;;5075005;28;20074;-64
2023/03/11 07:55:58;;;;;;;5.68;2.17;;;0.00;99.90;;;;;;5066143;28;20427;-70
2023/03/11 07:58:24;;;;;;;7.72;1.85;;;0.10;99.90;;;;;;5063942;28;20500;-64
2023/03/11 08:00:49;;;;;;;8.18;2.10;;;0.20;99.90;;;;;;5069886;28;20120;-67
2023/03/11 08:03:15;;;;;;;9.20;1.50;;;0.20;99.90;;;;;;5066610;28;20119;-62
2023/03/11 08:05:41;;;;;;;11.93;1.85;;;0.20;99.90;;;;;;5083509;28;20257;-70
2023/03/11 08:08:06;;;;;;;6.65;2.13;;;0.30;99.90;;;;;;5082676;28;20051;-69
2023/03/11 08:10:34;;;;;;;7.32;1.63;;;0.40;99.90;;;;;;5085907;28;20067;-67
2023/03/11 08:13:00;;;;;;;7.80;2.03;;;0.40;99.90;;;;;;5081058;28;20044;-67
2023/03/11 08:15:26;;;;;;;5.68;1.77;;;0.50;99.90;;;;;;5084389;28;20055;-66
2023/03/11 08:17:51;;;;;;;8.82;1.98;;;0.50;99.90;;;;;;5070286;28;20040;-66
2023/03/11 08:20:17;;;;;;;8.88;2.22;;;0.60;99.90;;;;;;5065948;28;20480;-65
2023/03/11 08:22:42;;;;;;;5.88;1.80;;;0.70;99.90;;;;;;5082253;28;20391;-64
2023/03/11 08:25:08;;;;;;;10.20;2.33;;;0.70;99.90;;;;;;5082375;28;20213;-74
2023/03/11 08:27:33;;;;;;;9.55;2.33;;;0.80;99.90;;;;;;5069792;28;20589;-67
2023/03/11 08:29:59;;;;;;;5.63;1.95;;;0.90;99.90;;;;;;5085688;28;20752;-64
2023/03/11 08:32:25;;;;;;;15.13;3.13;;;1.00;99.90;;;;;;5075163;28;20044;-65
2023/03/11 08:34:50;;;;;;;8.10;2.70;;;1.10;99.90;;;;;;5067845;28;20041;-65
2023/03/11 08:37:16;;;;;;;9.00;2.20;;;1.10;99.90;;;;;;5082400;28;20028;-64
2023/03/11 08:39:41;;;;;;;7.93;2.25;;;1.10;99.90;;;;;;5085286;28;20032;-66
2023/03/11 08:42:07;;;;;;;8.40;1.88;;;1.30;99.90;;;;;;5083609;28;20625;-69
2023/03/11 08:44:32;;;;;;;10.55;1.80;;;1.20;99.90;;;;;;5081684;28;20750;-69
2023/03/11 08:47:00;;;;;;;9.52;2.03;;;1.30;99.90;;;;;;5080073;28;20125;-70
2023/03/11 08:49:25;;;;;;;6.10;1.98;;;1.30;99.90;;;;;;5082567;28;20035;-66
2023/03/11 08:51:51;;;;;;;7.07;1.88;;;1.40;99.90;;;;;;5083554;28;20032;-66
2023/03/11 08:54:16;;;;;;;5.95;1.75;;;1.40;99.90;;;;;;5082758;28;20041;-69
2023/03/11 08:56:42;;;;;;;5.97;1.75;;;1.40;99.90;;;;;;5082181;28;20158;-67
2023/03/11 08:59:07;;;;;;;9.07;2.55;;;1.50;99.90;;;;;;5082003;28;20123;-71
2023/03/11 09:01:33;;;;;;;7.88;1.92;;;1.60;99.90;;;;;;5081505;28;20502;-67
2023/03/11 09:03:59;;;;;;;9.90;2.05;;;1.70;99.90;;;;;;5080897;28;20072;-69
2023/03/11 09:06:24;;;;;;;6.70;1.83;;;1.70;99.90;;;;;;5062904;28;20557;-68
2023/03/11 09:08:50;;;;;;;8.50;2.97;;;1.70;99.90;;;;;;5062923;28;20044;-67
2023/03/11 09:11:17;;;;;;;6.22;1.90;;;1.80;99.90;;;;;;5061945;28;20438;-69
2023/03/11 09:13:43;;;;;;;10.48;1.85;;;1.90;99.90;;;;;;5078522;28;20121;-67
2023/03/11 09:16:12;;;;;;;10.27;1.80;;;1.90;99.90;;;;;;5065875;28;20131;-66
2023/03/11 09:18:38;;;;;;;10.57;1.80;;;2.00;99.90;;;;;;5073840;28;20046;-64
2023/03/11 09:21:04;;;;;;;11.05;2.13;;;2.00;99.90;;;;;;5064238;28;20184;-65
2023/03/11 09:23:29;;;;;;;7.68;1.98;;;2.10;99.90;;;;;;5061097;28;20043;-67
2023/03/11 09:25:55;;;;;;;8.20;1.77;;;2.10;99.90;;;;;;5062690;28;20044;-65
2023/03/11 09:28:20;;;;;;;4.50;1.65;;;2.20;99.90;;;;;;5070383;28;20046;-66
2023/03/11 09:30:46;;;;;;;13.50;2.10;;;2.20;99.90;;;;;;5082469;28;20104;-67
2023/03/11 09:33:11;;;;;;;6.28;1.70;;;2.30;99.90;;;;;;5081146;28;20521;-65
2023/03/11 09:35:38;;;;;;;8.45;2.40;;;2.50;99.90;;;;;;5082989;28;20040;-66
2023/03/11 09:38:04;;;;;;;13.27;2.25;;;2.60;99.90;;;;;;5071314;28;20123;-65
2023/03/11 09:40:45;;;;;;;8.70;1.70;;;2.80;99.90;;;;;;5062212;28;20170;-67
2023/03/11 09:43:29;;;;;;;10.48;2.10;;;2.80;99.90;;;;;;5052304;28;20131;-68
2023/03/11 09:46:23;;;;;;;10.63;1.67;;;2.90;99.90;;;;;;5081783;28;20043;-66
2023/03/11 09:49:00;;;;;;;9.02;2.00;;;2.90;99.90;;;;;;5063505;28;20036;-68
2023/03/11 09:51:29;;;;;;;13.55;2.30;;;3.00;99.90;;;;;;5046147;28;20045;-69
2023/03/11 09:54:27;;;;;;;6.45;1.50;;;3.00;99.90;;;;;;5060899;28;20040;-68
2023/03/11 09:56:54;;;;;;;9.98;1.40;;;3.00;99.90;;;;;;5059629;28;20086;-70
2023/03/11 09:59:29;;;;;;;9.43;1.73;;;3.00;99.90;;;;;;5062003;28;20094;-67
2023/03/11 10:01:54;;;;;;;8.93;1.80;;;3.00;99.90;;;;;;5061331;28;20670;-67
2023/03/11 10:04:37;;;;;;;4.72;1.70;;;3.00;99.90;;;;;;5061715;28;20044;-66
2023/03/11 10:07:17;;;;;;;10.05;1.85;;;3.00;99.90;;;;;;5042991;28;20474;-67
2023/03/11 10:09:50;;;;;;;6.97;1.65;;;3.00;99.90;;;;;;5061913;28;20102;-67
2023/03/11 10:12:19;;;;;;;10.63;2.67;;;3.10;99.90;;;;;;5062135;28;20052;-67
2023/03/11 10:15:03;;;;;;;9.27;2.10;;;3.20;99.90;;;;;;5067993;28;20497;-67
2023/03/11 10:18:00;;;;;;;9.57;1.80;;;3.30;99.90;;;;;;5073916;28;20076;-66
2023/03/11 10:20:35;;;;;;;8.93;2.10;;;3.30;99.90;;;;;;5059457;28;20044;-65
2023/03/11 10:23:20;;;;;;;10.32;1.85;;;3.40;99.90;;;;;;5078309;28;20070;-66
2023/03/11 10:26:04;;;;;;;8.48;2.55;;;3.50;99.90;;;;;;5062207;28;20044;-65
2023/03/11 10:28:50;;;;;;;10.02;2.00;;;3.50;99.90;;;;;;5062362;28;20387;-65
2023/03/11 10:31:26;;;;;;;13.05;2.40;;;3.50;99.90;;;;;;5062185;28;20404;-65
2023/03/11 10:33:59;;;;;;;9.65;2.30;;;3.60;99.90;;;;;;5077910;28;20046;-65
2023/03/11 10:36:34;;;;;;;8.90;2.38;;;3.60;99.90;;;;;;5081905;28;20127;-65
2023/03/11 10:39:01;;;;;;;10.25;2.15;;;3.70;99.90;;;;;;5082229;28;20086;-63
2023/03/11 10:41:44;;;;;;;8.73;1.98;;;3.80;99.90;;;;;;5082315;28;20408;-63
2023/03/11 10:44:22;;;;;;;12.27;2.27;;;3.90;99.90;;;;;;5080994;28;20044;-64
2023/03/11 10:46:48;;;;;;;11.18;2.33;;;3.90;99.90;;;;;;5078967;28;20060;-65
2023/03/11 10:49:16;;;;;;;8.13;1.77;;;3.90;99.90;;;;;;5065930;28;20450;-63
2023/03/11 10:51:45;;;;;;;11.18;1.98;;;3.90;99.90;;;;;;5082047;28;20043;-64
2023/03/11 10:54:44;;;;;;;5.60;1.67;;;3.90;99.90;;;;;;5075801;28;20408;-63
2023/03/11 10:57:34;;;;;;;8.80;1.90;;;3.90;99.90;;;;;;5047015;28;20255;-62
2023/03/11 11:00:08;;;;;;;10.25;1.80;;;3.90;99.90;;;;;;5065451;28;20586;-62
2023/03/11 11:02:39;;;;;;;7.07;1.77;;;3.90;99.90;;;;;;5065148;28;20151;-63
2023/03/11 11:05:27;;;;;;;11.65;1.88;;;4.10;99.90;;;;;;5065466;28;20044;-62
2023/03/11 11:08:14;;;;;;;8.88;1.85;;;4.30;99.90;;;;;;5063289;28;20044;-62
2023/03/11 11:10:50;;;;;;;7.45;1.75;;;4.80;99.90;;;;;;5065327;28;20091;-63
2023/03/11 11:13:21;;;;;;;6.35;1.60;;;5.20;99.90;;;;;;5069857;28;20102;-62
2023/03/11 11:15:56;;;;;;;8.43;1.95;;;5.60;99.90;;;;;;5065772;28;20418;-62
2023/03/11 11:18:41;;;;;;;8.45;2.00;;;6.00;99.10;;;;;;5082071;28;20051;-64
2023/03/11 11:21:12;;;;;;;6.78;1.90;;;6.40;98.00;;;;;;5049192;28;20047;-64
2023/03/11 11:23:47;;;;;;;8.95;2.28;;;6.50;98.80;;;;;;5063424;28;20044;-65
2023/03/11 11:26:33;;;;;;;7.97;2.03;;;6.50;96.50;;;;;;5065017;28;20600;-65
2023/03/11 11:29:13;;;;;;;10.40;2.28;;;6.40;95.90;;;;;;5065108;28;20097;-65
2023/03/11 11:31:44;;;;;;;13.48;2.30;;;6.30;95.00;;;;;;5048449;28;20036;-65
2023/03/11 11:34:40;;;;;;;8.63;2.33;;;6.00;98.00;;;;;;5065474;28;20454;-67
2023/03/11 11:37:11;;;;;;;6.82;2.25;;;6.00;97.00;;;;;;5065296;28;20508;-68
2023/03/11 11:39:50;;;;;;;10.45;2.15;;;5.90;95.20;;;;;;5084825;28;20039;-67
2023/03/11 11:42:17;;;;;;;9.75;2.35;;;5.60;96.40;;;;;;5066328;28;20036;-67
2023/03/11 11:44:49;;;;;;;10.15;1.90;;;5.70;98.70;;;;;;5074340;28;20082;-70
2023/03/11 11:47:26;;;;;;;10.85;2.13;;;5.80;98.40;;;;;;5080164;28;20058;-75
2023/03/11 11:49:59;;;;;;;9.82;1.90;;;6.20;98.60;;;;;;5086584;28;20184;-71
2023/03/11 11:52:30;;;;;;;8.15;1.77;;;6.10;96.50;;;;;;5085705;28;20051;-71
2023/03/11 11:55:01;;;;;;;8.30;1.95;;;5.90;95.60;;;;;;5088332;28;20066;-69
2023/03/11 11:57:27;;;;;;;6.22;1.75;;;5.80;95.70;;;;;;5066974;28;20063;-69
2023/03/11 11:59:52;;;;;;;10.00;1.88;;;5.70;95.20;;;;;;5086975;28;20036;-71
2023/03/11 12:02:35;;;;;;;6.85;1.60;;;5.90;96.20;;;;;;5079662;28;20048;-74
2023/03/11 12:05:25;;;;;;;12.00;1.73;;;6.20;94.20;;;;;;5074438;28;20036;-72
2023/03/11 12:08:09;;;;;;;8.50;1.60;;;6.10;94.00;;;;;;5082199;28;20146;-68
2023/03/11 12:10:56;;;;;;;4.82;1.58;;;6.10;95.70;;;;;;5084667;28;20126;-65
2023/03/11 12:14:01;;;;;;;7.10;1.92;;;6.00;93.60;;;;;;5078711;28;20093;-71
2023/03/11 12:16:55;;;;;;;6.00;1.75;;;6.10;95.50;;;;;;5084483;28;20122;-67
2023/03/11 12:19:27;;;;;;;;;;;6.20;93.30;;;;;;5065178;28;20097;-67
2023/03/11 12:22:08;;;;;;;8.85;1.92;;;6.30;93.90;;;;;;5062903;28;20564;-67
2023/03/11 12:24:58;;;;;;;9.02;1.67;;;6.40;93.90;;;;;;5047833;28;20044;-65
2023/03/11 12:27:46;;;;;;;8.88;1.73;;;6.50;96.10;;;;;;5065138;28;20049;-64
2023/03/11 12:30:16;;;;;;;8.07;1.52;;;6.70;92.10;;;;;;5085052;28;20414;-63
2023/03/11 12:32:48;;;;;;;7.25;1.85;;;6.80;94.40;;;;;;5063170;28;20059;-62
2023/03/11 12:35:31;;;;;;;9.50;1.50;;;6.70;88.50;;;;;;5064941;28;20048;-62
2023/03/11 12:38:03;;;;;;;4.97;1.27;;;6.30;86.50;;;;;;5082940;28;20511;-64
2023/03/11 12:40:49;;;;;;;5.35;1.67;;;6.20;91.90;;;;;;5085105;28;20050;-63
2023/03/11 12:43:47;;;;;;;7.88;1.50;;;6.00;93.00;;;;;;5066086;28;20165;-65
2023/03/11 12:46:17;;;;;;;7.13;1.52;;;6.00;92.10;;;;;;5063897;28;20049;-62
2023/03/11 12:49:09;;;;;;;6.13;1.48;;;6.00;92.20;;;;;;5078524;28;20035;-64
2023/03/11 12:51:36;;;;;;;9.23;1.92;;;5.60;91.70;;;;;;5082006;28;20059;-64
2023/03/11 12:54:42;;;;;;;10.40;1.60;;;5.40;94.10;;;;;;5082961;28;20043;-61
2023/03/11 12:57:31;;;;;;;5.93;1.70;;;5.60;96.00;;;;;;4981513;28;20129;-63
2023/03/11 13:00:18;;;;;;;7.03;1.70;;;5.70;95.30;;;;;;4979906;28;20038;-62
2023/03/11 13:03:09;;;;;;;10.38;1.35;;;5.90;95.00;;;;;;5060520;28;20040;-60